Time;durP1;ratioP1;P1;durP2;ratioP2;P2;SDS_P1;SDS_P2;PMS_P1;PMS_P2;Temp;Humidity;BMP_temperature;BMP_pressure;BME280_temperature;BME280_humidity;BME280_pressure;Samples;Min_cycle;Max_cycle;Signal;HPM_P1;HPM_P2
2023/01/09 00:00:22;;;;;;;0.32;0.20;;;;;;;6.26;88.45;99323.66;5070010;28;20024;-79
2023/01/09 00:02:48;;;;;;;0.47;0.20;;;;;;;6.21;88.84;99319.50;5056095;28;20029;-79
2023/01/09 00:05:15;;;;;;;1.05;0.22;;;;;;;6.18;88.61;99314.44;5066552;28;20036;-79
2023/01/09 00:07:41;;;;;;;0.60;0.20;;;;;;;6.15;88.32;99318.84;5071049;28;20037;-79
2023/01/09 00:10:09;;;;;;;0.52;0.30;;;;;;;6.13;88.71;99320.63;5070235;28;20074;-79
2023/01/09 00:12:35;;;;;;;0.52;0.30;;;;;;;6.09;88.13;99325.06;5063274;28;20036;-79
2023/01/09 00:15:00;;;;;;;0.25;0.20;;;;;;;6.08;88.18;99318.22;5065157;28;20398;-79
2023/01/09 00:17:26;;;;;;;0.20;0.20;;;;;;;6.04;88.10;99319.19;5066197;28;20403;-79
2023/01/09 00:19:51;;;;;;;0.10;0.10;;;;;;;6.00;88.18;99326.19;5070411;28;20017;-79
2023/01/09 00:22:16;;;;;;;0.20;0.20;;;;;;;5.97;87.91;99328.00;5055579;28;20036;-80
2023/01/09 00:24:42;;;;;;;0.38;0.30;;;;;;;5.94;87.85;99331.50;5085333;28;20024;-80
2023/01/09 00:27:07;;;;;;;1.20;0.40;;;;;;;5.90;88.06;99333.34;5095699;28;20441;-80
2023/01/09 00:29:32;;;;;;;0.98;0.30;;;;;;;5.87;88.29;99330.03;5095368;28;20031;-80
2023/01/09 00:31:58;;;;;;;0.50;0.20;;;;;;;5.82;88.07;99335.31;5091326;28;20408;-80
2023/01/09 00:34:24;;;;;;;1.13;0.40;;;;;;;5.80;88.32;99339.69;5075259;28;20021;-79
2023/01/09 00:36:53;;;;;;;1.45;0.50;;;;;;;5.76;88.61;99338.09;5061404;28;20024;-79
2023/01/09 00:39:20;;;;;;;0.68;0.40;;;;;;;5.75;88.56;99336.41;5037140;28;20423;-79
2023/01/09 00:41:48;;;;;;;0.82;0.32;;;;;;;5.71;88.35;99339.94;5085941;28;20110;-79
2023/01/09 00:44:23;;;;;;;1.00;0.30;;;;;;;5.69;88.53;99336.56;5095231;28;20028;-80
2023/01/09 00:46:53;;;;;;;0.40;0.20;;;;;;;5.65;88.25;99333.25;5095009;28;20044;-80
2023/01/09 00:49:19;;;;;;;2.15;0.38;;;;;;;5.60;88.59;99338.56;5082533;28;20032;-79
2023/01/09 00:51:45;;;;;;;0.45;0.38;;;;;;;5.58;88.37;99345.50;5074852;28;20032;-79
2023/01/09 00:54:13;;;;;;;0.57;0.38;;;;;;;5.53;88.35;99337.03;5066381;28;20421;-79
2023/01/09 00:56:39;;;;;;;0.30;0.30;;;;;;;5.53;88.21;99342.19;5062274;28;20104;-79
2023/01/09 00:59:05;;;;;;;0.40;0.32;;;;;;;5.51;88.61;99349.13;5076565;28;20108;-79
2023/01/09 01:01:31;;;;;;;1.45;0.30;;;;;;;5.46;88.34;99356.16;5048736;28;20021;-79
2023/01/09 01:03:56;;;;;;;0.70;0.35;;;;;;;5.46;88.31;99356.16;5058422;28;20563;-79
2023/01/09 01:09:05;;;;;;;1.90;0.47;;;;;;;5.41;88.23;99355.44;5062035;28;20094;-79
2023/01/09 01:11:32;;;;;;;0.60;0.40;;;;;;;5.37;88.93;99356.41;5071607;28;20028;-79
2023/01/09 01:13:58;;;;;;;1.27;0.60;;;;;;;5.36;88.83;99357.31;5067379;28;20032;-79
2023/01/09 01:16:24;;;;;;;1.40;0.30;;;;;;;5.31;88.83;99350.53;5072691;28;20035;-79
2023/01/09 01:18:49;;;;;;;0.90;0.40;;;;;;;5.30;88.55;99361.72;5063028;28;20047;-79
2023/01/09 01:21:15;;;;;;;1.67;0.30;;;;;;;5.28;88.92;99360.97;5074521;28;20042;-80
2023/01/09 01:23:41;;;;;;;1.20;0.50;;;;;;;5.26;88.85;99369.59;5062315;28;20083;-79
2023/01/09 01:26:12;;;;;;;1.10;0.40;;;;;;;5.25;88.96;99371.34;5060350;28;20028;-79
2023/01/09 01:28:38;;;;;;;0.75;0.40;;;;;;;5.24;88.84;99372.25;5070528;28;20035;-80
2023/01/09 01:31:04;;;;;;;1.33;0.40;;;;;;;5.21;89.11;99376.66;5065652;28;20020;-79
2023/01/09 01:33:30;;;;;;;0.93;0.40;;;;;;;5.19;89.24;99379.25;5094233;28;20073;-80
2023/01/09 01:36:16;;;;;;;0.60;0.30;;;;;;;5.17;89.12;99368.13;5058962;28;20028;-79
2023/01/09 01:38:42;;;;;;;1.98;0.40;;;;;;;5.15;89.07;99372.47;5055982;28;20020;-79
2023/01/09 01:41:07;;;;;;;1.48;0.40;;;;;;;5.12;89.20;99368.25;5057259;28;20028;-79
2023/01/09 01:43:56;;;;;;;3.65;0.47;;;;;;;5.11;89.13;99376.03;5053769;28;20383;-79
2023/01/09 01:46:21;;;;;;;1.85;0.40;;;;;;;5.08;89.42;99369.22;5056311;28;20013;-79
2023/01/09 01:48:51;;;;;;;1.15;0.50;;;;;;;5.07;89.23;99377.00;5080666;28;20036;-79
2023/01/09 01:51:18;;;;;;;1.48;0.50;;;;;;;5.04;89.16;99374.50;5093788;28;20019;-79
2023/01/09 01:53:52;;;;;;;1.63;0.50;;;;;;;5.01;89.25;99373.69;5077907;28;20024;-79
2023/01/09 01:56:31;;;;;;;1.17;0.60;;;;;;;4.98;89.28;99373.78;5073475;28;20032;-79
2023/01/09 01:59:17;;;;;;;1.58;0.60;;;;;;;4.93;89.48;99372.22;5072982;28;20028;-79
2023/01/09 02:01:46;;;;;;;2.10;0.70;;;;;;;4.94;89.22;99379.06;5060591;28;20054;-79
2023/01/09 02:04:12;;;;;;;1.10;0.60;;;;;;;4.92;89.32;99381.69;5053375;28;20049;-80
2023/01/09 02:06:38;;;;;;;1.98;0.68;;;;;;;4.90;89.74;99377.44;5073781;28;20028;-79
2023/01/09 02:09:05;;;;;;;1.98;0.60;;;;;;;4.88;89.58;99377.50;5072402;28;20473;-79
2023/01/09 02:11:31;;;;;;;1.33;0.60;;;;;;;4.84;89.66;99376.72;5072763;28;20029;-79
2023/01/09 02:13:57;;;;;;;1.25;0.60;;;;;;;4.83;89.68;99384.47;5072932;28;20040;-79
2023/01/09 02:16:55;;;;;;;1.50;0.60;;;;;;;4.79;89.93;99382.84;5072974;28;20025;-79
2023/01/09 02:19:43;;;;;;;1.42;0.60;;;;;;;4.78;90.12;99378.63;5070262;28;20040;-79
2023/01/09 02:22:25;;;;;;;1.00;0.68;;;;;;;4.75;89.67;99379.53;5071535;28;20029;-79
2023/01/09 02:25:15;;;;;;;1.08;0.57;;;;;;;4.73;89.79;99380.47;5071086;28;20036;-79
2023/01/09 02:28:08;;;;;;;1.95;0.60;;;;;;;4.70;90.32;99382.22;5070168;28;20085;-79
2023/01/09 02:30:43;;;;;;;1.93;0.80;;;;;;;4.69;90.03;99380.53;5071164;28;20021;-79
2023/01/09 02:33:26;;;;;;;1.95;0.90;;;;;;;4.68;89.93;99385.72;5070969;28;20182;-79
2023/01/09 02:36:04;;;;;;;2.35;0.63;;;;;;;4.66;90.30;99390.06;5058880;28;20484;-79
2023/01/09 02:38:39;;;;;;;2.33;0.60;;;;;;;4.63;89.94;99397.88;5052898;28;20072;-79
2023/01/09 02:41:16;;;;;;;1.27;0.70;;;;;;;4.61;90.03;99387.59;5079814;28;20032;-79
2023/01/09 02:43:42;;;;;;;1.00;0.70;;;;;;;4.61;90.12;99387.59;5054715;28;20383;-79
2023/01/09 02:46:18;;;;;;;2.42;0.80;;;;;;;4.59;90.07;99385.94;5071645;28;20054;-79
2023/01/09 02:48:44;;;;;;;1.58;0.73;;;;;;;4.57;90.47;99383.41;5037329;28;20035;-80
2023/01/09 02:51:22;;;;;;;2.13;0.80;;;;;;;4.54;90.43;99383.50;5067826;28;20024;-79
2023/01/09 02:54:18;;;;;;;1.15;0.60;;;;;;;4.51;90.68;99381.84;5052505;28;20388;-79
2023/01/09 02:57:06;;;;;;;1.85;0.65;;;;;;;4.48;90.41;99381.06;5071487;28;20471;-79
2023/01/09 02:59:56;;;;;;;1.73;0.70;;;;;;;4.45;90.87;99389.72;5067625;28;20031;-79
2023/01/09 03:02:38;;;;;;;1.58;0.73;;;;;;;4.43;90.71;99376.03;5052618;28;20100;-79
2023/01/09 03:05:03;;;;;;;1.35;0.70;;;;;;;4.42;90.68;99371.75;5062825;28;20041;-79
2023/01/09 03:07:44;;;;;;;3.03;0.73;;;;;;;4.40;90.36;99379.53;5072585;28;20349;-79
2023/01/09 03:10:18;;;;;;;1.63;0.75;;;;;;;4.37;90.48;99371.88;5055688;28;20075;-79
2023/01/09 03:12:47;;;;;;;2.40;0.80;;;;;;;4.36;90.80;99377.91;5052597;28;20028;-79
2023/01/09 03:15:14;;;;;;;1.50;0.77;;;;;;;4.36;90.87;99372.75;5090829;28;20043;-79
2023/01/09 03:17:44;;;;;;;2.67;0.83;;;;;;;4.34;91.12;99371.09;5092719;28;20389;-79
2023/01/09 03:20:12;;;;;;;1.83;1.05;;;;;;;4.31;91.11;99372.00;5072479;28;20029;-79
2023/01/09 03:22:52;;;;;;;2.38;0.82;;;;;;;4.31;91.15;99369.44;5072482;28;20145;-79
2023/01/09 03:25:17;;;;;;;6.80;0.95;;;;;;;4.30;91.28;99372.88;5053511;28;20371;-79
2023/01/09 03:27:43;;;;;;;2.67;0.97;;;;;;;4.30;91.07;99374.63;5062873;28;20111;-79
2023/01/09 03:30:09;;;;;;;2.73;0.90;;;;;;;4.29;91.02;99376.34;5074202;28;20025;-79
2023/01/09 03:32:34;;;;;;;3.17;1.15;;;;;;;4.25;91.29;99374.75;5092035;28;20028;-79
2023/01/09 03:35:00;;;;;;;3.03;1.30;;;;;;;4.25;91.41;99377.31;5075457;28;20487;-79
2023/01/09 03:37:26;;;;;;;3.50;1.40;;;;;;;4.22;91.04;99379.97;5070945;28;20467;-79
2023/01/09 03:39:51;;;;;;;6.00;1.70;;;;;;;4.21;91.34;99388.56;5069727;28;20032;-79
2023/01/09 03:42:16;;;;;;;3.28;1.33;;;;;;;4.19;91.35;99385.19;5070591;28;20059;-79
2023/01/09 03:44:41;;;;;;;4.87;1.70;;;;;;;4.15;90.85;99378.41;5054322;28;20021;-79
2023/01/09 03:47:07;;;;;;;2.80;1.50;;;;;;;4.13;91.24;99378.44;5073475;28;20443;-79
2023/01/09 03:49:32;;;;;;;3.27;1.40;;;;;;;4.13;91.24;99375.88;5092344;28;20016;-79
2023/01/09 03:51:57;;;;;;;4.13;1.47;;;;;;;4.12;91.08;99373.31;5092281;28;20435;-79
2023/01/09 03:54:23;;;;;;;3.93;1.50;;;;;;;4.11;91.25;99377.63;5074225;28;20127;-79
2023/01/09 03:56:49;;;;;;;3.37;1.50;;;;;;;4.07;91.59;99376.88;5067181;28;20025;-79
2023/01/09 03:59:14;;;;;;;3.10;1.30;;;;;;;4.07;91.30;99376.00;5052060;28;20067;-79
2023/01/09 04:01:39;;;;;;;3.75;1.25;;;;;;;4.07;91.44;99381.16;5068439;28;20024;-79
2023/01/09 04:04:04;;;;;;;4.50;1.50;;;;;;;4.08;91.34;99378.56;5048990;28;20495;-79
2023/01/09 04:06:30;;;;;;;4.55;1.50;;;;;;;4.09;91.88;99384.53;5074818;28;20028;-79
2023/01/09 04:08:55;;;;;;;4.43;1.40;;;;;;;4.09;91.77;99379.38;5071729;28;20041;-79
2023/01/09 04:11:21;;;;;;;2.30;1.27;;;;;;;4.08;91.48;99375.13;5071479;28;20096;-79
2023/01/09 04:13:46;;;;;;;2.10;1.10;;;;;;;4.08;91.39;99377.69;5073078;28;20399;-79
2023/01/09 04:16:12;;;;;;;3.67;1.35;;;;;;;4.07;91.73;99370.84;5074109;28;20021;-79
2023/01/09 04:18:37;;;;;;;3.93;1.20;;;;;;;4.08;91.63;99373.41;5071846;28;20028;-79
2023/01/09 04:21:02;;;;;;;2.83;1.10;;;;;;;4.05;91.76;99377.75;5081192;28;20031;-79
2023/01/09 04:23:28;;;;;;;1.83;1.00;;;;;;;4.04;91.36;99369.19;5086834;28;20047;-79
2023/01/09 04:25:53;;;;;;;3.90;1.30;;;;;;;4.08;91.81;99377.69;5072464;28;20104;-79
2023/01/09 04:28:18;;;;;;;1.92;0.80;;;;;;;4.08;91.34;99370.84;5072856;28;20036;-79
2023/01/09 04:30:43;;;;;;;2.80;0.90;;;;;;;4.10;91.88;99376.78;5072986;28;20048;-79
2023/01/09 04:33:09;;;;;;;2.15;0.90;;;;;;;4.13;91.56;99364.72;5072591;28;20029;-79
2023/01/09 04:35:34;;;;;;;2.03;0.80;;;;;;;4.17;91.91;99376.63;5073000;28;20063;-79
2023/01/09 04:37:59;;;;;;;2.47;1.02;;;;;;;4.20;92.13;99379.16;5053625;28;20406;-79
2023/01/09 04:40:25;;;;;;;3.72;0.90;;;;;;;4.25;92.03;99379.91;5073133;28;20046;-79
2023/01/09 04:42:50;;;;;;;1.88;1.00;;;;;;;4.30;92.39;99384.94;5073362;28;20039;-79
2023/01/09 04:45:16;;;;;;;2.30;0.90;;;;;;;4.32;92.35;99376.28;5071418;28;20518;-79
2023/01/09 04:47:42;;;;;;;2.97;0.90;;;;;;;4.39;92.09;99385.56;5072562;28;20103;-79
2023/01/09 04:50:09;;;;;;;4.70;1.00;;;;;;;4.44;92.04;99379.47;5072330;28;20036;-79
2023/01/09 04:52:34;;;;;;;3.97;1.20;;;;;;;4.46;92.44;99375.09;5054158;28;20048;-79
2023/01/09 04:54:59;;;;;;;2.60;0.90;;;;;;;4.51;92.09;99376.69;5073432;28;20048;-79
2023/01/09 04:57:25;;;;;;;4.57;1.02;;;;;;;4.57;92.13;99378.28;5072362;28;20094;-79
2023/01/09 04:59:50;;;;;;;2.05;0.82;;;;;;;4.57;91.88;99375.69;5071988;28;20027;-79
2023/01/09 05:02:15;;;;;;;2.90;0.90;;;;;;;4.63;91.61;99374.69;5071087;28;20059;-79
2023/01/09 05:04:40;;;;;;;6.70;1.25;;;;;;;4.63;91.49;99375.53;5072228;28;20095;-79
2023/01/09 05:07:06;;;;;;;5.53;1.00;;;;;;;4.68;91.48;99384.00;5072316;28;20024;-79
2023/01/09 05:09:31;;;;;;;4.22;1.33;;;;;;;4.70;91.69;99379.66;5073919;28;20037;-79
2023/01/09 05:11:56;;;;;;;3.22;0.98;;;;;;;4.75;91.43;99378.69;5072696;28;20541;-79
2023/01/09 05:14:21;;;;;;;5.10;1.00;;;;;;;4.76;91.65;99381.22;5074133;28;20480;-79
2023/01/09 05:16:47;;;;;;;3.38;1.00;;;;;;;4.78;91.74;99378.63;5072607;28;20024;-79
2023/01/09 05:19:12;;;;;;;2.35;0.95;;;;;;;4.82;91.30;99390.50;5071368;28;20024;-79
2023/01/09 05:21:37;;;;;;;2.70;0.90;;;;;;;4.85;91.30;99385.28;5067800;28;20029;-79
2023/01/09 05:24:03;;;;;;;2.47;0.80;;;;;;;4.87;91.15;99388.69;5068487;28;20099;-79
2023/01/09 05:26:28;;;;;;;3.75;1.08;;;;;;;4.90;91.24;99380.88;5072007;28;20020;-79
2023/01/09 05:28:55;;;;;;;2.45;0.80;;;;;;;4.91;91.00;99385.16;5072529;28;20073;-79
2023/01/09 05:31:21;;;;;;;3.58;0.80;;;;;;;4.94;90.65;99376.47;5076433;28;20024;-79
2023/01/09 05:33:47;;;;;;;2.65;0.88;;;;;;;4.97;91.06;99384.97;5068673;28;20024;-79
2023/01/09 05:36:12;;;;;;;3.55;1.00;;;;;;;4.99;90.56;99380.63;5065343;28;20035;-79
2023/01/09 05:38:37;;;;;;;2.10;0.82;;;;;;;5.03;90.61;99388.28;5073514;28;20091;-79
2023/01/09 05:41:03;;;;;;;2.85;0.77;;;;;;;5.04;90.50;99372.75;5071666;28;20028;-79
2023/01/09 05:43:28;;;;;;;4.10;1.10;;;;;;;5.06;91.10;99372.72;5045086;28;20024;-79
2023/01/09 05:45:54;;;;;;;2.20;0.75;;;;;;;5.06;90.67;99370.16;5073197;28;20024;-79
2023/01/09 05:48:19;;;;;;;3.13;0.70;;;;;;;5.08;90.77;99373.53;5057020;28;20057;-79
2023/01/09 05:50:44;;;;;;;2.22;0.90;;;;;;;5.09;90.45;99370.06;5072763;28;20025;-79
2023/01/09 05:53:09;;;;;;;3.03;0.85;;;;;;;5.12;90.71;99367.44;5072802;28;20374;-79
2023/01/09 05:55:35;;;;;;;3.78;0.85;;;;;;;5.13;90.40;99364.78;5072582;28;20051;-79
2023/01/09 05:58:00;;;;;;;4.68;0.95;;;;;;;5.17;90.48;99365.53;5073576;28;20036;-79
2023/01/09 06:00:25;;;;;;;2.90;0.80;;;;;;;5.19;90.46;99362.94;5068413;28;20073;-79
2023/01/09 06:02:51;;;;;;;5.22;0.90;;;;;;;5.21;90.34;99369.75;5071959;28;20028;-79
2023/01/09 06:05:16;;;;;;;4.68;0.90;;;;;;;5.24;89.93;99369.66;5086488;28;20024;-79
2023/01/09 06:07:41;;;;;;;2.85;0.88;;;;;;;5.22;90.19;99361.13;5073096;28;20147;-79
2023/01/09 06:10:10;;;;;;;4.35;0.90;;;;;;;5.26;90.26;99364.44;5053261;28;20167;-79
2023/01/09 06:12:35;;;;;;;5.78;1.08;;;;;;;5.28;89.97;99350.66;5071848;28;20032;-79
2023/01/09 06:15:00;;;;;;;3.03;0.80;;;;;;;5.28;90.04;99355.81;5072319;28;20039;-79
2023/01/09 06:17:26;;;;;;;4.88;1.05;;;;;;;5.32;89.59;99349.66;5058735;28;20020;-79
2023/01/09 06:19:51;;;;;;;3.38;0.90;;;;;;;5.34;89.71;99351.34;5072290;28;20020;-79
2023/01/09 06:22:16;;;;;;;3.17;0.88;;;;;;;5.36;89.76;99358.16;5079674;28;20020;-79
2023/01/09 06:24:41;;;;;;;2.33;0.98;;;;;;;5.37;89.65;99353.84;5072535;28;20063;-79
2023/01/09 06:27:07;;;;;;;7.40;1.00;;;;;;;5.41;89.90;99350.28;5072035;28;20507;-79
2023/01/09 06:29:32;;;;;;;3.47;1.08;;;;;;;5.43;89.31;99351.09;5072317;28;20024;-79
2023/01/09 06:31:57;;;;;;;3.80;1.00;;;;;;;5.45;89.20;99355.31;5071218;28;20033;-79
2023/01/09 06:34:22;;;;;;;3.10;0.90;;;;;;;5.46;89.57;99357.00;5054812;28;20301;-79
2023/01/09 06:36:48;;;;;;;3.85;1.00;;;;;;;5.47;89.83;99353.53;5053076;28;20036;-79
2023/01/09 06:39:13;;;;;;;6.38;0.90;;;;;;;5.49;90.14;99350.06;5091517;28;20043;-79
2023/01/09 06:41:38;;;;;;;4.03;1.08;;;;;;;5.50;89.57;99354.34;5077403;28;20029;-79
2023/01/09 06:44:04;;;;;;;4.75;1.00;;;;;;;5.48;89.38;99349.19;5067405;28;20507;-79
2023/01/09 06:46:29;;;;;;;3.28;0.77;;;;;;;5.54;89.16;99361.09;5069521;28;20070;-79
2023/01/09 06:48:54;;;;;;;3.80;0.90;;;;;;;5.54;89.29;99359.34;5069057;28;20066;-79
2023/01/09 06:51:19;;;;;;;5.35;1.15;;;;;;;5.56;89.12;99362.75;5070726;28;20364;-79
2023/01/09 06:53:45;;;;;;;4.13;1.00;;;;;;;5.60;89.23;99363.50;5070510;28;20024;-79
2023/01/09 06:56:10;;;;;;;5.25;1.35;;;;;;;5.61;89.14;99360.03;5068157;28;20039;-79
2023/01/09 06:58:35;;;;;;;4.13;1.10;;;;;;;5.62;88.97;99367.72;5062941;28;20025;-79
2023/01/09 07:01:00;;;;;;;4.75;0.90;;;;;;;5.65;88.95;99366.78;5066722;28;20043;-79
2023/01/09 07:03:26;;;;;;;4.57;0.98;;;;;;;5.67;89.24;99365.00;5063215;28;20040;-79
2023/01/09 07:05:51;;;;;;;4.70;0.95;;;;;;;5.67;88.94;99364.16;5070934;28;20511;-79
2023/01/09 07:08:16;;;;;;;3.85;1.02;;;;;;;5.68;88.73;99360.69;5070492;28;20032;-79
2023/01/09 07:10:43;;;;;;;4.30;1.23;;;;;;;5.69;89.05;99372.69;5067196;28;20028;-79
2023/01/09 07:13:08;;;;;;;3.95;1.00;;;;;;;5.69;88.64;99368.41;5072904;28;20025;-79
2023/01/09 07:15:33;;;;;;;5.65;1.15;;;;;;;5.72;88.56;99368.28;5070544;28;20484;-79
2023/01/09 07:17:59;;;;;;;4.95;1.00;;;;;;;5.73;88.66;99369.13;5054546;28;20460;-79
2023/01/09 07:20:24;;;;;;;4.32;1.20;;;;;;;5.76;88.91;99379.38;5071661;28;20013;-78
2023/01/09 07:22:49;;;;;;;7.30;1.20;;;;;;;5.76;88.93;99380.22;5072473;28;20021;-79
2023/01/09 07:25:15;;;;;;;5.57;1.10;;;;;;;5.77;88.67;99381.06;5070796;28;20447;-79
2023/01/09 07:27:41;;;;;;;4.97;1.13;;;;;;;5.82;88.56;99383.50;5065738;28;20527;-80
2023/01/09 07:30:07;;;;;;;8.38;1.70;;;;;;;5.85;88.25;99393.75;5066648;28;20021;-79
2023/01/09 07:32:32;;;;;;;5.13;1.30;;;;;;;5.87;87.96;99384.22;5068245;28;20021;-81
2023/01/09 07:34:58;;;;;;;4.68;1.10;;;;;;;5.89;87.88;99396.19;5066768;28;20055;-80
2023/01/09 07:37:23;;;;;;;4.57;1.10;;;;;;;5.90;87.94;99397.00;5059298;28;20021;-80
2023/01/09 07:39:48;;;;;;;2.97;0.80;;;;;;;5.93;88.00;99409.84;5072308;28;20031;-81
2023/01/09 07:42:14;;;;;;;5.63;1.40;;;;;;;5.95;87.98;99409.81;5046748;28;20032;-81
2023/01/09 07:44:39;;;;;;;4.25;1.10;;;;;;;5.93;88.50;99408.13;5068556;28;20111;-81
2023/01/09 07:47:05;;;;;;;2.60;1.05;;;;;;;5.92;88.79;99410.72;5071911;28;20519;-80
2023/01/09 07:49:31;;;;;;;3.70;1.40;;;;;;;5.92;89.02;99421.03;5066873;28;20035;-80
2023/01/09 07:51:56;;;;;;;4.20;1.00;;;;;;;5.92;88.63;99421.91;5068654;28;20485;-79
2023/01/09 07:54:21;;;;;;;3.05;1.35;;;;;;;5.95;88.74;99422.72;5063933;28;20459;-81
2023/01/09 07:56:47;;;;;;;5.88;1.20;;;;;;;5.95;89.61;99425.28;5050457;28;20476;-80
2023/01/09 07:59:12;;;;;;;3.17;1.20;;;;;;;5.92;89.87;99421.91;5073451;28;20024;-80
2023/01/09 08:01:37;;;;;;;5.55;1.23;;;;;;;5.89;89.93;99422.00;5070653;28;20032;-80
2023/01/09 08:04:03;;;;;;;4.97;1.20;;;;;;;5.87;90.30;99426.34;5081348;28;20518;-80
2023/01/09 08:06:28;;;;;;;7.20;1.67;;;;;;;5.87;90.02;99434.09;5074271;28;20028;-81
2023/01/09 08:08:54;;;;;;;7.22;1.60;;;;;;;5.83;90.41;99429.91;5069232;28;20041;-80
2023/01/09 08:11:19;;;;;;;5.80;1.40;;;;;;;5.81;90.61;99446.34;5065628;28;20055;-80
2023/01/09 08:13:44;;;;;;;3.92;1.35;;;;;;;5.80;90.53;99453.25;5067159;28;20029;-80
2023/01/09 08:16:09;;;;;;;5.25;1.40;;;;;;;5.80;90.74;99448.09;5063379;28;20056;-80
2023/01/09 08:18:35;;;;;;;3.20;1.35;;;;;;;5.82;90.51;99456.59;5065028;28;20048;-80
2023/01/09 08:21:00;;;;;;;4.65;1.50;;;;;;;5.83;90.71;99460.88;5067797;28;20097;-80
2023/01/09 08:23:25;;;;;;;5.20;1.52;;;;;;;5.83;90.86;99463.47;5067400;28;20035;-80
2023/01/09 08:25:51;;;;;;;3.85;1.45;;;;;;;5.85;91.27;99477.16;5066747;28;20451;-80
2023/01/09 08:28:17;;;;;;;4.53;1.58;;;;;;;5.87;90.70;99482.31;5066093;28;20434;-81
2023/01/09 08:30:42;;;;;;;4.50;1.60;;;;;;;5.88;90.57;99481.41;5066801;28;20083;-81
2023/01/09 08:33:07;;;;;;;4.20;1.55;;;;;;;5.94;90.63;99486.38;5068380;28;20064;-79
2023/01/09 08:35:33;;;;;;;5.93;1.30;;;;;;;5.96;90.86;99499.25;5061792;28;20043;-80
2023/01/09 08:37:58;;;;;;;6.82;2.15;;;;;;;5.98;90.42;99495.75;5065730;28;20119;-81
2023/01/09 08:40:23;;;;;;;4.22;1.70;;;;;;;5.98;90.78;99502.66;5069250;28;20013;-80
2023/01/09 08:48:17;;;;;;;6.22;2.17;;;;;;;6.03;90.91;99521.44;5065169;28;20047;-80
2023/01/09 08:50:43;;;;;;;3.88;1.48;;;;;;;6.04;90.56;99516.25;5074429;28;20028;-80
2023/01/09 08:53:09;;;;;;;5.18;1.63;;;;;;;6.04;90.47;99524.00;5076882;28;20061;-80
2023/01/09 08:55:34;;;;;;;4.05;1.60;;;;;;;6.05;90.53;99533.44;5061925;28;20055;-80
2023/01/09 08:58:00;;;;;;;6.85;2.05;;;;;;;6.08;90.46;99529.91;5065106;28;20448;-80
2023/01/09 09:00:25;;;;;;;5.85;1.90;;;;;;;6.08;90.59;99535.09;5065773;28;20082;-79
2023/01/09 09:02:52;;;;;;;3.65;1.40;;;;;;;6.11;90.75;99547.06;5065778;28;20032;-80
2023/01/09 09:05:18;;;;;;;5.43;1.70;;;;;;;6.11;90.77;99545.34;5063604;28;20029;-80
2023/01/09 09:07:43;;;;;;;4.20;1.40;;;;;;;6.13;90.73;99561.63;5063842;28;20035;-80
2023/01/09 09:10:09;;;;;;;3.30;1.80;;;;;;;6.12;90.99;99556.50;5068313;28;20024;-80
2023/01/09 09:12:34;;;;;;;4.88;1.65;;;;;;;6.09;91.37;99557.44;5069648;28;20521;-80
2023/01/09 09:15:11;;;;;;;5.72;1.90;;;;;;;6.08;91.77;99558.31;5066651;28;20032;-80
2023/01/09 09:17:39;;;;;;;3.72;1.48;;;;;;;6.09;91.82;99560.00;5063898;28;20532;-80
2023/01/09 09:20:05;;;;;;;6.82;1.73;;;;;;;6.08;92.02;99566.91;5071395;28;20024;-80
2023/01/09 09:22:30;;;;;;;4.47;1.60;;;;;;;6.10;91.81;99581.50;5075288;28;20033;-81
2023/01/09 09:24:55;;;;;;;5.57;1.88;;;;;;;6.13;91.89;99590.03;5067265;28;20368;-80
2023/01/09 09:27:21;;;;;;;5.43;1.90;;;;;;;6.11;92.11;99589.22;5044059;28;20027;-79
2023/01/09 09:29:46;;;;;;;5.32;1.90;;;;;;;6.14;92.48;99594.31;5064916;28;20118;-80
2023/01/09 09:32:11;;;;;;;5.38;1.70;;;;;;;6.18;92.03;99595.06;5065970;28;20429;-80
2023/01/09 09:34:37;;;;;;;7.00;1.90;;;;;;;6.18;92.20;99593.31;5049034;28;20074;-80
2023/01/09 09:37:02;;;;;;;4.63;1.95;;;;;;;6.20;92.42;99607.03;5065678;28;20376;-80
2023/01/09 09:39:27;;;;;;;4.25;1.80;;;;;;;6.21;91.73;99600.97;5059149;28;20052;-80
2023/01/09 09:45:25;;;;;;;4.30;1.80;;;;;;;6.26;91.40;99611.19;5058874;28;20059;-80
2023/01/09 09:48:36;;;;;;;4.55;1.75;;;;;;;6.25;91.35;99627.56;5059476;28;20028;-79
2023/01/09 09:51:10;;;;;;;5.32;1.77;;;;;;;6.26;91.37;99641.34;5054370;28;20507;-80
2023/01/09 09:54:00;;;;;;;5.90;1.85;;;;;;;6.26;91.61;99651.66;5057344;28;20040;-80
2023/01/09 09:56:31;;;;;;;4.05;1.63;;;;;;;6.30;92.07;99653.28;5060478;28;20071;-80
2023/01/09 09:59:02;;;;;;;5.75;2.13;;;;;;;6.32;92.03;99656.69;5060841;28;20113;-80
2023/01/09 10:01:41;;;;;;;6.97;1.92;;;;;;;6.34;91.84;99663.47;5063596;28;20420;-80
2023/01/09 10:04:14;;;;;;;3.53;1.60;;;;;;;6.37;92.15;99667.72;5057273;28;20065;-80
2023/01/09 10:06:44;;;;;;;5.43;2.20;;;;;;;6.36;91.94;99671.19;5057533;28;20093;-81
2023/01/09 10:09:47;;;;;;;5.65;2.05;;;;;;;6.34;92.24;99667.78;5059133;28;20472;-79
2023/01/09 10:12:29;;;;;;;2.80;1.80;;;;;;;6.33;92.01;99679.00;5059814;28;20090;-80
2023/01/09 10:15:01;;;;;;;7.00;2.38;;;;;;;6.36;91.68;99684.09;5058775;28;20111;-80
2023/01/09 10:17:50;;;;;;;5.15;2.40;;;;;;;6.37;91.87;99681.50;5065792;28;20099;-80
2023/01/09 10:20:37;;;;;;;5.32;2.40;;;;;;;6.39;91.83;99686.59;5060011;28;20016;-81
2023/01/09 10:23:12;;;;;;;5.13;2.30;;;;;;;6.47;91.92;99686.41;5062567;28;20150;-81
2023/01/09 10:26:00;;;;;;;4.90;2.15;;;;;;;6.56;91.83;99687.88;5069238;28;22297;-80
2023/01/09 10:28:44;;;;;;;6.45;2.40;;;;;;;6.67;91.59;99693.59;5058326;28;20418;-80
2023/01/09 10:31:33;;;;;;;6.28;2.40;;;;;;;6.73;90.87;99695.16;5062578;28;20479;-80
2023/01/09 10:34:13;;;;;;;5.22;2.40;;;;;;;6.76;90.58;99700.22;5057493;28;20029;-80
2023/01/09 10:36:58;;;;;;;4.50;2.33;;;;;;;6.77;90.10;99701.91;5060480;28;20050;-81
2023/01/09 10:39:33;;;;;;;5.72;2.60;;;;;;;6.75;90.26;99717.50;5059605;28;20107;-80
2023/01/09 10:42:15;;;;;;;4.15;2.80;;;;;;;6.75;89.94;99721.78;5060999;28;20025;-80
2023/01/09 10:44:50;;;;;;;;;;;;;;;6.78;89.79;99721.72;5059987;28;20404;-80
2023/01/09 10:47:31;;;;;;;8.85;3.17;;;;;;;6.74;88.88;99720.97;5059871;28;20016;-81
2023/01/09 10:49:57;;;;;;;6.30;2.72;;;;;;;6.73;89.10;99721.03;5059575;28;20064;-81
2023/01/09 10:52:38;;;;;;;5.63;2.90;;;;;;;6.71;89.08;99721.03;5061927;28;20127;-80
2023/01/09 10:55:28;;;;;;;4.63;2.85;;;;;;;6.67;89.25;99720.28;5062389;28;20083;-80
2023/01/09 10:58:00;;;;;;;3.95;2.55;;;;;;;6.67;89.31;99730.63;5061697;28;20037;-81
2023/01/09 11:00:25;;;;;;;3.70;2.58;;;;;;;6.70;89.26;99723.69;5062446;28;20031;-80
2023/01/09 11:02:52;;;;;;;4.95;2.55;;;;;;;6.70;89.27;99740.03;5064041;28;20111;-81
2023/01/09 11:05:21;;;;;;;6.05;2.70;;;;;;;6.65;89.43;99727.22;5061235;28;20548;-80
2023/01/09 11:07:52;;;;;;;5.80;2.55;;;;;;;6.72;89.48;99730.50;5062674;28;20025;-80
2023/01/09 11:10:17;;;;;;;7.77;2.67;;;;;;;6.78;89.49;99742.41;5062412;28;20079;-80
2023/01/09 11:12:43;;;;;;;6.47;2.60;;;;;;;6.78;89.30;99740.66;5064334;28;20028;-80
2023/01/09 11:15:18;;;;;;;3.53;2.28;;;;;;;6.82;89.57;99755.22;5057940;28;20455;-80
2023/01/09 11:17:44;;;;;;;7.97;2.95;;;;;;;6.80;89.49;99751.81;5066994;28;20020;-80
2023/01/09 11:20:30;;;;;;;5.47;2.30;;;;;;;6.80;89.27;99741.47;5069350;28;20021;-81
2023/01/09 11:22:57;;;;;;;5.63;2.40;;;;;;;6.85;89.21;99738.75;5068292;28;20062;-80
2023/01/09 11:25:25;;;;;;;6.30;2.97;;;;;;;6.91;89.21;99748.94;5080208;28;20382;-81
2023/01/09 11:28:00;;;;;;;6.60;2.40;;;;;;;6.91;89.50;99745.50;5064932;28;20043;-80
2023/01/09 11:30:26;;;;;;;5.13;2.65;;;;;;;6.96;88.95;99751.38;5065371;28;20047;-81
2023/01/09 11:32:54;;;;;;;7.60;2.83;;;;;;;6.98;88.78;99771.13;5068286;28;20031;-80
2023/01/09 11:35:25;;;;;;;6.10;2.58;;;;;;;6.96;88.88;99767.72;5068296;28;20028;-80
2023/01/09 11:38:11;;;;;;;9.45;3.42;;;;;;;6.98;88.96;99765.13;5069638;28;20190;-80
2023/01/09 11:40:45;;;;;;;6.47;2.60;;;;;;;6.98;88.95;99760.78;5067502;28;20513;-80
2023/01/09 11:43:32;;;;;;;6.43;3.22;;;;;;;7.03;88.74;99768.41;5059827;28;20147;-80
2023/01/09 11:46:00;;;;;;;5.25;2.88;;;;;;;7.04;88.29;99771.84;5059950;28;20365;-80
2023/01/09 11:48:51;;;;;;;10.05;3.75;;;;;;;7.07;88.66;99772.59;5063995;28;20536;-80
2023/01/09 11:51:21;;;;;;;8.45;3.05;;;;;;;7.10;88.15;99777.69;5066898;28;20410;-80
2023/01/09 11:54:15;;;;;;;7.57;2.95;;;;;;;7.14;88.41;99774.13;5065096;28;20028;-80
2023/01/09 11:56:41;;;;;;;6.75;3.60;;;;;;;7.16;87.98;99774.09;5053866;28;20033;-80
2023/01/09 11:59:18;;;;;;;11.82;3.67;;;;;;;7.14;87.87;99775.84;5058664;28;20360;-80
2023/01/09 12:02:18;;;;;;;11.38;3.63;;;;;;;7.16;88.32;99773.25;5066075;28;20027;-80